Change the Weather History Date:

Friday, March 28, 2014

  Actual Average (KMFE) Record (KMFE)
Temperature  
Mean Temperature 83 °F 73 °F  
Max Temperature 97 °F 85 °F 104 °F (1984)
Min Temperature 69 °F 62 °F 43 °F (1955)
Degree Days  
Heating Degree Days 0 1  
Month to date heating degree days 39  
Since 1 July heating degree days 572  
Cooling Degree Days 18 9  
Month to date cooling degree days 190  
Year to date cooling degree days 349  
Growing Degree Days 33 (Base 50)    
Moisture  
Dew Point 61 °F    
Average Humidity 61    
Maximum Humidity 87    
Minimum Humidity 13    
Precipitation  
Precipitation 0.00 in 0.03 in 0.44 in (1999)
Month to date precipitation 0.94  
Year to date precipitation 3.10  
Sea Level Pressure  
Sea Level Pressure 29.79 in    
Wind  
Wind Speed 8 mph (South)    
Max Wind Speed 17 mph    
Max Gust Speed 24 mph    
Visibility 7 miles    
Events      
T = Trace of Precipitation, MM = Missing Value Source: NWS Daily Summary

Daily Weather History Graph

Daily Weather History Graph

Search for Another Location

Airport or City:

Trip Planner

Search our weather history database for the weather conditions in past years. The results will help you decide how hot, cold, wet, or windy it might be!

Date:

Astronomy

Mar. 28, 2014 Rise Set
Actual Time 7:27 AM CDT 7:47 PM CDT
Civil Twilight 7:04 AM CDT 8:10 PM CDT
Nautical Twilight 6:37 AM CDT 8:37 PM CDT
Astronomical Twilight 6:10 AM CDT 9:05 PM CDT
Moon 5:47 AM CDT (3/28) 5:55 PM CDT (3/28)
Length of Visible Light 13h 06m
Length of Day
12h 19m
Waning Crescent, 6% of the Moon is Illuminated
Mar 28
Waning Crescent
Mar 30
New
Apr 7
First Quarter
Apr 15
Full
Apr 22
Last Quarter

Hourly Weather History & Observations

Time (CDT) Temp. Heat Index Dew Point Humidity Pressure Visibility Wind Dir Wind Speed Gust Speed Precip Events Conditions
12:15 AM 73.9 °F - 69.4 °F 86% 29.80 in 5.0 mi South 9.2 mph - N/A   Overcast
12:35 AM 73.8 °F - 69.4 °F 86% 29.80 in 5.0 mi South 10.4 mph - N/A   Overcast
12:55 AM 73.8 °F - 69.4 °F 86% 29.79 in 5.0 mi South 10.4 mph - N/A   Overcast
1:15 AM 73.8 °F - 69.4 °F 86% 29.79 in 5.0 mi South 8.1 mph - N/A   Overcast
1:35 AM 73.9 °F - 69.6 °F 86% 29.79 in 5.0 mi SSE 8.1 mph - N/A   Overcast
1:55 AM 73.8 °F - 69.8 °F 87% 29.78 in 5.0 mi SSE 6.9 mph - N/A   Overcast
2:15 AM 73.8 °F - 69.8 °F 87% 29.77 in 5.0 mi SSE 8.1 mph - N/A   Overcast
2:35 AM 73.4 °F - 69.4 °F 87% 29.77 in 5.0 mi South 10.4 mph 16.1 mph N/A   Overcast
2:55 AM 73.6 °F - 69.4 °F 87% 29.76 in 5.0 mi SSE 6.9 mph - N/A   Overcast
3:15 AM 73.6 °F - 69.4 °F 87% 29.75 in 5.0 mi SE 6.9 mph - N/A   Haze
3:35 AM 73.6 °F - 69.6 °F 87% 29.76 in 5.0 mi South 10.4 mph - N/A   Overcast
3:55 AM 73.8 °F - 69.8 °F 87% 29.75 in 5.0 mi South 6.9 mph - N/A   Overcast
4:15 AM 73.8 °F - 69.8 °F 87% 29.75 in 5.0 mi South 5.8 mph - N/A   Overcast
4:35 AM 73.8 °F - 69.3 °F 86% 29.75 in 5.0 mi South 3.5 mph - N/A   Haze
4:55 AM 73.8 °F - 68.9 °F 85% 29.75 in 7.0 mi South 5.8 mph 9.2 mph N/A   Overcast
5:15 AM 73.4 °F - 68.4 °F 84% 29.74 in 7.0 mi SSE 6.9 mph - N/A   Overcast
5:35 AM 73.4 °F - 68.5 °F 85% 29.75 in 5.0 mi SSE 4.6 mph - N/A   Overcast
5:55 AM 73.0 °F - 68.5 °F 86% 29.75 in 5.0 mi SSE 5.8 mph - N/A   Overcast
6:15 AM 72.9 °F - 68.4 °F 86% 29.76 in 5.0 mi SSE 6.9 mph - N/A   Overcast
6:35 AM 72.7 °F - 68.5 °F 87% 29.76 in 5.0 mi SSE 4.6 mph - N/A   Overcast
7:15 AM 72.5 °F - 68.2 °F 86% 29.76 in 5.0 mi SSE 5.8 mph - N/A   Overcast
7:35 AM 72.5 °F - 68.2 °F 86% 29.76 in 5.0 mi South 8.1 mph - N/A   Overcast
7:55 AM 72.5 °F - 68.4 °F 87% 29.77 in 4.0 mi South 4.6 mph - N/A   Haze
8:15 AM 72.7 °F - 68.4 °F 86% 29.77 in 4.0 mi SSE 9.2 mph - N/A   Haze
8:35 AM 72.9 °F - 68.5 °F 86% 29.78 in 4.0 mi SSE 11.5 mph - N/A   Overcast
8:55 AM 73.2 °F - 68.7 °F 86% 29.79 in 4.0 mi South 9.2 mph - N/A   Overcast
9:15 AM 73.4 °F - 68.5 °F 85% 29.80 in 4.0 mi South 10.4 mph - N/A   Overcast
9:35 AM 73.8 °F - 68.9 °F 85% 29.81 in 4.0 mi South 8.1 mph - N/A   Haze
9:55 AM 74.8 °F - 69.1 °F 82% 29.81 in 4.0 mi South 8.1 mph - N/A   Haze
10:15 AM 75.4 °F - 68.9 °F 80% 29.81 in 5.0 mi South 10.4 mph - N/A   Haze
10:35 AM 75.7 °F - 68.9 °F 79% 29.82 in 4.0 mi South 8.1 mph - N/A   Haze
10:55 AM 76.3 °F - 69.1 °F 78% 29.82 in 5.0 mi South 10.4 mph - N/A   Haze
11:15 AM 76.6 °F - 69.1 °F 77% 29.81 in 5.0 mi South 9.2 mph - N/A   Haze
11:35 AM 77.7 °F - 69.3 °F 75% 29.81 in 5.0 mi South 6.9 mph - N/A   Haze
11:55 AM 77.9 °F - 69.3 °F 75% 29.82 in 5.0 mi South 8.1 mph - N/A   Haze
12:15 PM 78.1 °F - 69.8 °F 76% 29.82 in 5.0 mi SSW 8.1 mph - N/A   Haze
12:35 PM 80.1 °F 82.9 °F 69.3 °F 69% 29.82 in 7.0 mi South 5.8 mph - N/A   Overcast
12:55 PM 80.8 °F 83.8 °F 69.1 °F 67% 29.82 in 7.0 mi WNW 3.5 mph - N/A   Mostly Cloudy
1:15 PM 82.9 °F 86.5 °F 69.3 °F 63% 29.82 in 7.0 mi West 4.6 mph - N/A   Scattered Clouds
1:35 PM 84.0 °F 87.8 °F 69.1 °F 61% 29.81 in 7.0 mi WNW 4.6 mph - N/A   Clear
1:55 PM 84.6 °F 87.9 °F 68.4 °F 58% 29.79 in 10.0 mi Calm Calm - N/A   Clear
2:15 PM 86.4 °F 90.0 °F 68.4 °F 55% 29.78 in 10.0 mi West 3.5 mph - N/A   Clear
2:35 PM 87.6 °F 91.1 °F 67.8 °F 52% 29.77 in 10.0 mi North 3.5 mph - N/A   Clear
2:55 PM 89.1 °F 92.1 °F 67.1 °F 48% 29.76 in 10.0 mi NNW 5.8 mph - N/A   Clear
3:15 PM 91.4 °F 93.6 °F 65.5 °F 42% 29.75 in 10.0 mi NNW 6.9 mph - N/A   Clear
3:35 PM 93.2 °F 94.5 °F 63.1 °F 37% 29.74 in 10.0 mi NNW 8.1 mph - N/A   Clear
3:55 PM 95.4 °F - 51.6 °F 23% 29.74 in 10.0 mi NNW 13.8 mph 19.6 mph N/A   Clear
4:15 PM 97.2 °F - 45.1 °F 17% 29.73 in 10.0 mi NW 15.0 mph 21.9 mph N/A   Clear
4:35 PM 97.7 °F - 38.7 °F 13% 29.73 in 10.0 mi NNW 16.1 mph 23.0 mph N/A   Clear
4:55 PM 97.0 °F - 40.5 °F 14% 29.73 in 10.0 mi NNW 15.0 mph 24.2 mph N/A   Clear
5:15 PM 96.6 °F - 39.6 °F 14% 29.73 in 10.0 mi NNW 16.1 mph 24.2 mph N/A   Clear
5:35 PM 96.1 °F - 40.5 °F 15% 29.73 in 10.0 mi NNW 16.1 mph 20.7 mph N/A   Clear
5:55 PM 95.4 °F - 40.1 °F 15% 29.74 in 10.0 mi North 17.3 mph - N/A   Clear
6:15 PM 93.7 °F - 39.0 °F 15% 29.74 in 10.0 mi North 13.8 mph 18.4 mph N/A   Clear
6:35 PM 93.9 °F - 38.3 °F 14% 29.75 in 10.0 mi North 11.5 mph - N/A   Clear
6:55 PM 91.8 °F - 43.7 °F 19% 29.75 in 10.0 mi North 6.9 mph - N/A   Clear
7:15 PM 88.7 °F - 45.3 °F 22% 29.76 in 10.0 mi North 6.9 mph - N/A   Clear
7:35 PM 84.7 °F - 45.1 °F 25% 29.76 in 10.0 mi North 6.9 mph - N/A   Clear
7:55 PM 81.5 °F - 45.9 °F 29% 29.77 in 10.0 mi North 5.8 mph - N/A   Clear
8:15 PM 78.8 °F - 48.4 °F 34% 29.79 in 10.0 mi North 3.5 mph - N/A   Clear
8:35 PM 78.8 °F - 46.9 °F 32% 29.80 in 10.0 mi North 4.6 mph - N/A   Clear
8:55 PM 79.2 °F - 46.4 °F 31% 29.81 in 10.0 mi NNE 5.8 mph - N/A   Clear
9:15 PM 79.7 °F - 45.5 °F 30% 29.82 in 10.0 mi NNE 6.9 mph - N/A   Clear
9:35 PM 79.9 °F - 45.9 °F 30% 29.83 in 10.0 mi NNE 4.6 mph - N/A   Clear
9:55 PM 76.1 °F - 49.5 °F 39% 29.85 in 10.0 mi NNE 5.8 mph - N/A   Clear
10:15 PM 74.7 °F - 50.2 °F 42% 29.86 in 10.0 mi Calm Calm - N/A   Clear
10:35 PM 75.9 °F - 49.3 °F 39% 29.87 in 7.0 mi Calm Calm - N/A   Clear
10:55 PM 72.1 °F - 52.5 °F 50% 29.87 in 10.0 mi Calm Calm - N/A   Clear
11:15 PM 72.1 °F - 53.6 °F 52% 29.88 in 10.0 mi NNE 3.5 mph - N/A   Clear
11:35 PM 69.6 °F - 53.1 °F 56% 29.89 in 10.0 mi Calm Calm - N/A   Clear
11:55 PM 72.0 °F - 51.4 °F 48% 29.90 in 10.0 mi Calm Calm - N/A   Clear